Terminal Aerodrome Forecast
Issued by NWS

Home | Current Version | Previous Version | Text Only | Print | Product List | Glossary On
Versions: 1 2 3 4 5 6 7 8 9 10 11 12 13
308
FTUS43 KEAX 242320
TAFMKC
TAF
KMKC 242320Z 2500/2524 16009KT P6SM VCTS SCT050CB BKN100
      TEMPO 2501/2502 5SM -TSRA BKN040CB
     FM250200 18006KT 5SM -TSRA BKN040CB
     FM250500 VRB04KT P6SM -SHRA VCTS BKN040CB
     FM250800 26006KT P6SM VCSH OVC040
     FM251400 33008KT P6SM OVC040
     FM252300 31006KT P6SM SCT150=

USA.gov is the U.S. government's official web portal to all federal, state and local government web resources and services.